Last 24 Hours

Thomas Mountain

10 Minute Data | America/Los_Angeles
as of 9/4/26 3:38 AM PDT
Date & Time Temp (°F) Dew Pt (°F) RH (%) Wind Spd (mph) Wind Dir (°) Wind Gust (mph) Wind Gst Dir (°) Daily Max Temp (°F) Daily Min Temp (°F)
9/4/26 - 0330 59.8 30.4 33 3.7 NW | 308 7.6 NW | 326 60.9 55.6
9/4/26 - 0320 59.8 27.5 29 3.9 NW | 316 8.2 WNW | 295 60.9 55.6
9/4/26 - 0310 60.5 26.1 27 4.0 WNW | 296 10.4 W | 275 60.9 55.6
9/4/26 - 0300 60.7 25.5 26 6.6 WNW | 284 11.8 WNW | 286 60.9 55.6
9/4/26 - 0250 59.5 25.6 27 4.0 WNW | 302 8.8 W | 277 60.3 55.6
9/4/26 - 0240 58.9 29.9 33 3.5 NW | 323 7.9 WNW | 298 59.8 55.6
9/4/26 - 0230 59.4 29.3 32 2.7 NW | 325 8.1 WNW | 288 59.8 55.6
9/4/26 - 0220 59.5 30.3 33 3.8 WNW | 296 8.0 WNW | 290 59.8 55.6
9/4/26 - 0210 58.1 35.1 42 3.6 NW | 315 8.4 W | 280 59.0 55.6
9/4/26 - 0200 57.9 39.1 50 4.2 N | 357 6.1 NNW | 348 58.8 55.6
9/4/26 - 0150 58.4 36.8 44 1.9 N | 352 3.8 N | 354 58.8 55.6
9/4/26 - 0140 56.8 42.3 58 4.5 N | 352 6.4 N | 350 57.5 55.6
9/4/26 - 0130 56.3 44.6 65 5.3 N | 359 7.7 N | 352 57.2 55.6
9/4/26 - 0120 56.4 43.9 63 6.3 NNE | 12 9.9 N | 3 57.2 55.6
9/4/26 - 0110 55.8 42.5 61 4.5 NNE | 12 7.4 NNE | 21 56.1 55.6
9/4/26 - 0100 56.8 41.5 56 5.6 N | 9 8.8 NNW | 333 74.2 55.7
9/4/26 - 0050 57.6 40.5 53 4.8 N | 358 10.2 NNW | 342 74.2 55.7
9/4/26 - 0040 60.1 40.5 48 2.4 NNW | 331 7.1 W | 266 74.2 55.7
9/4/26 - 0030 62.2 40.0 44 5.0 WSW | 258 9.7 WSW | 258 74.2 55.7
9/4/26 - 0020 62.3 40.2 44 7.7 W | 272 14.3 W | 279 74.2 55.7
9/4/26 - 0010 61.8 41.5 47 11.4 W | 277 17.5 WNW | 292 74.2 55.7
9/4/26 - 0000 59.8 43.2 54 7.3 W | 276 12.1 W | 266 74.2 55.7
9/3/26 - 2350 60.0 44.6 57 7.0 W | 272 9.9 W | 263 74.2 55.7
9/3/26 - 2340 59.6 44.3 57 4.8 W | 280 8.7 W | 274 74.2 55.7
9/3/26 - 2330 58.2 43.5 58 3.8 NW | 309 6.7 NNW | 329 74.2 55.7
9/3/26 - 2320 56.8 42.8 59 6.0 NNW | 342 7.7 NNW | 341 74.2 55.7
9/3/26 - 2310 56.0 43.3 62 4.9 N | 357 6.5 NNW | 344 74.2 55.7
9/3/26 - 2300 57.4 43.6 60 4.5 N | 10 5.8 NNE | 12 74.2 56.4
9/3/26 - 2250 58.6 44.1 58 2.0 NE | 34 5.5 N | 9 74.2 56.9
9/3/26 - 2240 58.8 44.2 58 0.8 N | 353 2.3 N | 354 74.2 56.9
9/3/26 - 2230 59.3 44.3 58 1.1 W | 262 2.8 W | 261 74.2 56.9
9/3/26 - 2220 59.6 43.9 56 1.0 W | 267 2.2 W | 266 74.2 56.9
9/3/26 - 2210 59.7 43.6 55 0.5 W | 278 1.5 WNW | 295 74.2 56.9
9/3/26 - 2200 58.6 44.0 58 2.3 NW | 310 5.3 N | 349 74.2 56.9
9/3/26 - 2150 57.2 45.6 65 4.3 N | 356 6.9 NNW | 342 74.2 56.9
9/3/26 - 2140 57.5 45.9 65 4.7 NE | 43 6.4 NE | 45 74.2 57.0
9/3/26 - 2130 57.9 45.4 63 4.1 NE | 43 6.2 NNE | 23 74.2 57.3
9/3/26 - 2120 58.3 45.4 62 5.2 N | 8 7.9 N | 0 74.2 57.3
9/3/26 - 2110 58.7 45.3 61 8.0 N | 3 12.1 NNE | 13 74.2 57.3
9/3/26 - 2100 58.6 44.4 59 9.0 N | 11 12.5 N | 11 74.2 57.3
9/3/26 - 2050 58.5 44.0 58 7.3 N | 3 13.2 N | 7 74.2 57.3
9/3/26 - 2040 59.3 44.5 58 6.8 NNE | 12 9.9 NNE | 12 74.2 57.3
9/3/26 - 2030 60.3 42.7 52 6.7 NNE | 26 9.1 NNE | 17 74.2 57.3
9/3/26 - 2020 62.6 40.5 44 2.2 N | 5 7.6 NE | 40 74.2 57.3
9/3/26 - 2010 62.8 41.0 45 3.1 NW | 325 6.0 NNW | 339 74.2 57.3
9/3/26 - 2000 62.1 43.3 50 5.7 NNW | 342 7.3 NNW | 338 74.2 57.3
9/3/26 - 1950 61.8 44.1 52 6.0 NNW | 346 9.0 NNW | 345 74.2 57.3
9/3/26 - 1940 62.0 44.3 52 4.7 NNE | 22 7.8 N | 352 74.2 57.3
9/3/26 - 1930 62.4 45.0 53 2.0 ENE | 62 4.1 NE | 48 74.2 57.3
9/3/26 - 1920 62.7 46.6 56 0.9 SSW | 209 3.2 SSW | 199 74.2 57.3
9/3/26 - 1910 65.1 43.4 45 4.3 SW | 235 6.5 SW | 218 74.2 57.3
9/3/26 - 1900 66.1 41.9 41 5.3 WSW | 248 8.3 WSW | 249 74.2 57.3
9/3/26 - 1850 66.7 41.3 40 5.8 WSW | 254 9.6 WSW | 253 74.2 57.3
9/3/26 - 1840 67.2 41.0 38 7.1 WSW | 255 11.4 WSW | 253 74.2 57.3
9/3/26 - 1830 67.6 40.2 37 8.4 WSW | 251 11.2 WSW | 252 74.2 57.3
9/3/26 - 1820 68.2 40.1 36 9.0 WSW | 246 13.6 SW | 231 74.2 57.3
9/3/26 - 1810 68.1 41.8 38 9.8 WSW | 243 16.2 WSW | 237 74.2 57.3
9/3/26 - 1800 68.4 42.2 38 9.8 WSW | 252 16.8 SW | 230 74.2 57.3
9/3/26 - 1750 69.2 41.9 37 9.2 WSW | 248 16.2 WSW | 257 74.2 57.3
9/3/26 - 1740 69.5 41.5 36 9.6 WSW | 252 16.2 WSW | 243 74.2 57.3
9/3/26 - 1730 69.7 40.6 35 10.1 WSW | 250 19.0 WSW | 246 74.2 57.3
9/3/26 - 1720 69.8 40.5 34 10.7 WSW | 251 18.6 W | 259 74.2 57.3
9/3/26 - 1710 69.9 40.6 34 14.3 WSW | 244 21.0 SW | 236 74.2 57.3
9/3/26 - 1700 70.4 40.0 33 12.7 WSW | 250 20.8 WSW | 247 74.2 57.3
9/3/26 - 1650 70.9 38.5 31 12.2 WSW | 246 18.4 WSW | 252 74.2 57.3
9/3/26 - 1640 71.6 37.9 29 12.1 WSW | 252 21.0 SW | 229 74.2 57.3
9/3/26 - 1630 71.2 38.2 30 14.6 WSW | 238 24.7 SW | 235 74.2 57.3
9/3/26 - 1620 71.9 39.2 30 14.0 WSW | 239 23.8 WSW | 247 74.2 57.3
9/3/26 - 1610 72.0 37.6 28 11.9 WSW | 238 21.6 WSW | 238 74.2 57.3
9/3/26 - 1600 72.0 35.6 26 12.6 WSW | 246 22.5 WSW | 238 74.2 57.3
9/3/26 - 1550 72.0 35.5 26 12.7 WSW | 245 20.6 WSW | 254 74.2 57.3
9/3/26 - 1540 71.9 35.6 26 11.0 WSW | 246 18.6 WSW | 256 74.2 57.3
9/3/26 - 1530 72.1 35.9 27 10.8 W | 260 22.2 WSW | 257 74.2 57.3
9/3/26 - 1520 72.0 35.3 26 11.0 WSW | 244 21.2 WNW | 289 74.2 57.3
9/3/26 - 1510 71.8 36.4 27 14.6 WSW | 248 25.8 WSW | 252 74.2 57.3
9/3/26 - 1500 72.0 36.2 27 14.9 WSW | 246 26.4 WSW | 245 74.2 57.3
9/3/26 - 1450 72.3 36.5 27 15.0 WSW | 244 25.5 WSW | 241 74.2 57.3
9/3/26 - 1440 72.8 36.5 27 14.0 WSW | 245 22.9 WSW | 243 74.2 57.3
9/3/26 - 1430 72.5 36.2 27 12.9 WSW | 245 24.4 WSW | 242 73.4 57.3
9/3/26 - 1420 71.4 34.8 26 13.2 WSW | 251 21.5 WSW | 251 73.2 57.3
9/3/26 - 1410 72.1 34.8 25 13.2 WSW | 251 25.5 WSW | 248 73.2 57.3
9/3/26 - 1400 71.2 34.0 25 11.4 WSW | 255 20.1 W | 268 73.2 57.3
9/3/26 - 1350 71.1 33.6 25 13.1 WSW | 241 21.3 SW | 233 73.2 57.3
9/3/26 - 1340 71.3 33.7 25 12.1 WSW | 253 21.2 WSW | 247 73.2 57.3
9/3/26 - 1330 71.1 33.4 25 13.9 WSW | 247 22.8 W | 266 73.2 57.3
9/3/26 - 1320 71.5 33.5 25 13.4 WSW | 238 22.5 SW | 232 73.2 57.3
9/3/26 - 1310 71.1 33.0 24 13.3 WSW | 242 23.4 SW | 224 73.2 57.3
9/3/26 - 1300 71.3 32.7 24 11.2 WSW | 245 20.9 WSW | 248 73.2 57.3
9/3/26 - 1250 71.2 31.7 23 12.2 WSW | 241 24.1 SW | 235 73.2 57.3
9/3/26 - 1240 71.4 32.5 24 13.6 WSW | 253 21.6 SW | 234 73.2 57.3
9/3/26 - 1230 71.7 32.5 24 12.5 WSW | 244 21.8 SW | 225 73.2 57.3
9/3/26 - 1220 71.2 31.9 23 13.9 WSW | 242 22.2 WSW | 240 72.6 57.3
9/3/26 - 1210 71.3 30.7 22 13.8 WSW | 244 23.2 SW | 230 72.2 57.3
9/3/26 - 1200 70.9 29.6 21 13.2 SW | 233 20.1 SW | 229 71.8 57.3
9/3/26 - 1150 70.4 28.1 21 14.1 WSW | 242 22.4 W | 264 71.2 57.3
9/3/26 - 1140 70.5 27.1 20 14.4 WSW | 243 19.6 WSW | 237 71.2 57.3
9/3/26 - 1130 70.3 26.8 20 13.5 WSW | 244 23.7 WSW | 241 71.2 57.3
9/3/26 - 1120 69.3 26.2 20 13.2 WSW | 238 22.2 WSW | 246 70.6 57.3
9/3/26 - 1110 69.2 25.2 19 13.4 WSW | 240 20.1 SW | 235 70.2 57.3
9/3/26 - 1100 69.1 24.3 18 11.9 WSW | 242 18.8 WSW | 241 70.2 57.3
9/3/26 - 1050 69.0 23.2 18 11.3 WSW | 242 17.8 WSW | 248 69.8 57.3
9/3/26 - 1040 68.2 22.6 18 8.6 WSW | 237 19.6 WSW | 243 68.7 57.3
9/3/26 - 1030 67.4 22.0 18 10.6 WSW | 242 20.0 WSW | 242 67.8 57.3
9/3/26 - 1020 67.1 21.9 18 10.1 WSW | 244 16.4 W | 261 67.7 57.3
9/3/26 - 1010 66.8 22.2 18 10.0 WSW | 241 15.1 SW | 221 67.2 57.3
9/3/26 - 1000 66.2 21.8 18 9.8 WSW | 239 14.8 WSW | 250 66.8 57.3
9/3/26 - 0950 64.6 20.8 19 9.1 WSW | 238 14.7 SW | 231 65.4 57.3
9/3/26 - 0940 63.9 18.5 17 8.8 WSW | 242 12.6 WSW | 248 64.4 57.3
9/3/26 - 0930 63.3 16.8 16 8.9 WSW | 247 12.1 WSW | 241 63.9 57.3
9/3/26 - 0920 63.3 16.4 16 7.9 WSW | 237 11.3 SW | 232 63.9 57.3
9/3/26 - 0910 62.3 16.5 17 7.3 WSW | 241 11.4 SW | 226 62.8 57.3
9/3/26 - 0900 61.6 19.3 19 5.9 WSW | 242 9.7 WSW | 250 62.8 57.3
9/3/26 - 0850 61.2 20.8 21 6.5 WSW | 245 8.8 WSW | 250 62.8 57.3
9/3/26 - 0840 60.8 21.2 22 5.1 WSW | 241 7.9 WSW | 258 62.8 57.3
9/3/26 - 0830 60.9 22.2 22 4.0 WSW | 237 6.6 SW | 233 62.8 57.3
9/3/26 - 0820 60.5 23.0 23 3.2 WSW | 241 4.8 SW | 233 62.8 57.3
9/3/26 - 0810 60.1 24.0 25 3.7 SW | 235 5.6 WSW | 253 62.8 57.3
9/3/26 - 0800 59.9 24.0 25 3.2 SW | 229 5.0 SW | 232 62.8 57.3
9/3/26 - 0750 60.3 23.4 24 2.7 SSW | 208 5.3 SSW | 212 62.8 57.3
9/3/26 - 0740 60.7 23.1 23 2.5 SSW | 208 3.9 SSW | 209 62.8 57.3
9/3/26 - 0730 62.3 21.0 20 1.8 S | 178 3.7 SSW | 201 62.8 57.3
9/3/26 - 0720 61.4 20.1 20 1.1 SSE | 156 2.6 SSW | 196 62.3 57.3
9/3/26 - 0710 61.0 19.1 20 1.0 S | 180 2.2 SSE | 166 62.3 57.3
9/3/26 - 0700 60.9 16.2 17 0.9 WSW | 244 2.8 W | 276 62.3 57.3
9/3/26 - 0650 60.7 15.8 17 1.5 WSW | 248 4.9 W | 262 62.3 57.3
9/3/26 - 0640 59.5 19.1 21 1.6 NNE | 21 2.8 NE | 44 62.3 57.3
9/3/26 - 0630 59.7 21.2 22 2.2 NE | 35 4.2 N | 5 62.3 57.3
9/3/26 - 0620 59.8 21.4 22 3.5 N | 1 4.9 N | 352 62.3 57.3
9/3/26 - 0610 59.0 22.5 24 4.0 N | 358 6.1 N | 7 62.3 57.3
9/3/26 - 0600 59.1 23.0 25 5.8 N | 4 9.1 NNE | 16 62.3 57.3
9/3/26 - 0550 58.7 21.7 24 6.8 N | 6 8.8 N | 7 62.3 57.3
9/3/26 - 0540 57.8 19.4 22 5.6 N | 11 7.6 NNE | 20 62.3 57.3
9/3/26 - 0530 58.1 18.6 21 5.1 NNE | 18 7.5 NNE | 19 62.3 57.3
9/3/26 - 0520 57.8 18.0 21 5.0 NNE | 25 8.2 NNE | 26 62.3 57.3
9/3/26 - 0510 58.1 18.4 21 5.5 NNE | 20 8.0 N | 9 62.3 57.9
9/3/26 - 0500 58.7 18.2 20 5.2 NNE | 22 7.1 NNE | 20 62.3 58.1
9/3/26 - 0450 58.7 17.6 20 4.8 NNE | 26 6.9 NNE | 21 62.3 58.4
9/3/26 - 0440 58.9 16.1 19 5.4 NNE | 18 8.0 NNE | 26 62.3 58.7
9/3/26 - 0430 60.0 18.8 20 3.9 NNE | 24 6.6 NNW | 342 62.3 58.8
9/3/26 - 0420 60.4 17.5 19 2.2 NNE | 14 5.3 NNW | 342 62.3 58.8
9/3/26 - 0410 59.4 16.1 18 2.4 ENE | 59 4.7 NE | 52 62.3 58.8
9/3/26 - 0400 60.0 16.2 18 1.4 ENE | 77 2.6 E | 85 62.3 59.5
9/3/26 - 0350 60.5 17.5 19 0.7 ESE | 103 2.1 E | 87 62.3 60.4
9/3/26 - 0340 60.7 17.7 19 1.6 NNE | 32 4.4 ENE | 70 62.3 60.4
9/3/26 - 0330 60.9 17.3 18 3.5 WNW | 303 9.0 WNW | 289 62.3 60.8
Max 72.8 46.6 65 15.0 - 26.4 - 74.2 60.8
Avg 63.8 32.4 34 7.2 - 12.1 - - -
Min 55.8 15.8 16 0.5 - 1.5 - 56.1 55.6